NCAR-RAP Real-Time Weather Data

Output produced by METARs form (10 April 2020  07:03 UTC)
found at http://weather.rap.ucar.edu/surface/
 
KJKL 100656Z AUTO 36011G37KT 330V040 1 1/2SM -SN BR SCT005 BKN026 OVC036 01/M01 A2985 RMK AO2 P0001 T00111006